Time;durP1;ratioP1;P1;durP2;ratioP2;P2;SDS_P1;SDS_P2;PMS_P1;PMS_P2;Temp;Humidity;BMP_temperature;BMP_pressure;BME280_temperature;BME280_humidity;BME280_pressure;Samples;Min_cycle;Max_cycle;Signal;HPM_P1;HPM_P2
2023/06/06 00:00:19;;;;;;;6.50;5.90;;;21.10;81.60;;;;;;5032053;28;20037;-77
2023/06/06 00:02:45;;;;;;;7.28;6.07;;;21.10;81.70;;;;;;5032617;28;20025;-77
2023/06/06 00:05:15;;;;;;;7.07;5.78;;;21.00;82.30;;;;;;5032115;28;20036;-76
2023/06/06 00:07:42;;;;;;;6.38;5.88;;;20.80;82.50;;;;;;5032626;28;20028;-77
2023/06/06 00:10:09;;;;;;;7.95;5.65;;;20.80;83.10;;;;;;5032200;28;20041;-77
2023/06/06 00:12:36;;;;;;;8.95;6.28;;;20.70;83.60;;;;;;5032149;28;20037;-76
2023/06/06 00:15:03;;;;;;;7.80;5.90;;;20.60;83.70;;;;;;5032270;28;20028;-77
2023/06/06 00:17:30;;;;;;;6.50;5.97;;;20.60;84.20;;;;;;5031318;28;20390;-78
2023/06/06 00:19:56;;;;;;;8.35;5.72;;;20.70;84.10;;;;;;5032445;28;20029;-77
2023/06/06 00:22:23;;;;;;;7.22;6.15;;;20.70;84.10;;;;;;5032122;28;20036;-77
2023/06/06 00:24:49;;;;;;;7.20;6.00;;;20.70;85.00;;;;;;5032166;28;20046;-77
2023/06/06 00:27:16;;;;;;;6.63;6.03;;;20.60;84.70;;;;;;5031777;28;20478;-77
2023/06/06 00:29:42;;;;;;;6.30;5.80;;;20.80;84.50;;;;;;5032304;28;20030;-77
2023/06/06 00:32:08;;;;;;;6.30;5.70;;;20.90;84.10;;;;;;5031266;28;20406;-77
2023/06/06 00:34:34;;;;;;;6.85;6.25;;;20.90;83.90;;;;;;5032206;28;20037;-77
2023/06/06 00:37:00;;;;;;;6.47;5.88;;;20.80;84.40;;;;;;5031238;28;20049;-77
2023/06/06 00:39:26;;;;;;;7.45;5.30;;;20.80;84.70;;;;;;5032078;28;20386;-77
2023/06/06 00:41:52;;;;;;;6.65;6.05;;;20.70;84.50;;;;;;5031336;28;20025;-77
2023/06/06 00:44:19;;;;;;;6.32;5.35;;;20.70;85.10;;;;;;5032159;28;20474;-77
2023/06/06 00:46:45;;;;;;;6.97;5.88;;;20.60;85.20;;;;;;5031291;28;20048;-77
2023/06/06 00:49:13;;;;;;;6.53;5.93;;;20.50;85.70;;;;;;5055445;28;20482;-76
2023/06/06 00:51:39;;;;;;;6.57;5.60;;;20.40;87.00;;;;;;5042900;28;20785;-77
2023/06/06 00:54:08;;;;;;;5.75;5.35;;;20.20;87.70;;;;;;5034751;28;20025;-77
2023/06/06 00:56:36;;;;;;;9.02;5.80;;;20.20;88.00;;;;;;5035134;28;20041;-77
2023/06/06 00:59:03;;;;;;;6.57;5.95;;;20.20;87.90;;;;;;5034719;28;20021;-77
2023/06/06 01:01:36;;;;;;;7.15;5.97;;;20.10;89.10;;;;;;5035127;28;20036;-77
2023/06/06 01:04:10;;;;;;;6.93;5.90;;;20.00;89.70;;;;;;5033797;28;20042;-77
2023/06/06 01:06:37;;;;;;;9.10;6.00;;;20.10;89.50;;;;;;5034325;28;20026;-76
2023/06/06 01:09:07;;;;;;;6.50;5.90;;;20.00;90.20;;;;;;5035352;28;20029;-77
2023/06/06 01:11:59;;;;;;;10.57;6.00;;;20.10;90.20;;;;;;5033783;28;20269;-77
2023/06/06 01:14:48;;;;;;;6.50;5.75;;;20.00;90.50;;;;;;5034540;28;20032;-77
2023/06/06 01:17:17;;;;;;;9.38;5.32;;;20.00;90.70;;;;;;5033430;28;20044;-76
2023/06/06 01:19:43;;;;;;;6.30;5.70;;;19.90;91.00;;;;;;5034149;28;20060;-76
2023/06/06 01:22:12;;;;;;;10.80;5.93;;;19.80;91.40;;;;;;5017770;28;20037;-77
2023/06/06 01:24:44;;;;;;;10.90;5.80;;;19.80;91.60;;;;;;5033964;28;20021;-77
2023/06/06 01:27:10;;;;;;;6.50;5.85;;;19.90;91.60;;;;;;5033111;28;20041;-77
2023/06/06 01:29:36;;;;;;;6.68;5.72;;;19.90;91.60;;;;;;5035233;28;20021;-77
2023/06/06 01:32:08;;;;;;;7.43;5.90;;;19.80;91.80;;;;;;5034680;28;20053;-76
2023/06/06 01:34:38;;;;;;;7.03;6.30;;;19.70;92.30;;;;;;5034497;28;20370;-76
2023/06/06 01:37:13;;;;;;;6.85;6.25;;;19.70;92.50;;;;;;5033656;28;20037;-76
2023/06/06 01:39:40;;;;;;;7.40;6.05;;;19.60;92.70;;;;;;5035480;28;20030;-77
2023/06/06 01:42:06;;;;;;;7.03;6.30;;;19.50;92.90;;;;;;5050136;28;20037;-76
2023/06/06 01:44:32;;;;;;;6.63;6.03;;;19.40;93.40;;;;;;5050386;28;20029;-76
2023/06/06 01:46:59;;;;;;;8.43;6.70;;;19.40;93.70;;;;;;5068064;28;20045;-76
2023/06/06 01:49:25;;;;;;;8.07;6.85;;;19.30;93.80;;;;;;5053644;28;20029;-77
2023/06/06 01:51:53;;;;;;;7.40;6.70;;;19.50;93.80;;;;;;5039207;28;20041;-76
2023/06/06 01:54:19;;;;;;;8.15;6.65;;;19.60;93.60;;;;;;5034884;28;20034;-77
2023/06/06 01:56:45;;;;;;;6.63;6.07;;;19.50;93.70;;;;;;5034419;28;20042;-76
2023/06/06 01:59:11;;;;;;;8.45;6.68;;;19.40;94.20;;;;;;5033707;28;20498;-76
2023/06/06 02:01:38;;;;;;;8.70;6.65;;;19.30;94.60;;;;;;5032571;28;20037;-77
2023/06/06 02:04:04;;;;;;;7.97;6.32;;;19.20;94.90;;;;;;5024327;28;20401;-77
2023/06/06 02:06:30;;;;;;;8.40;6.18;;;19.20;95.10;;;;;;5023965;28;20059;-77
2023/06/06 02:08:56;;;;;;;6.68;6.07;;;19.30;95.10;;;;;;5018045;28;20035;-76
2023/06/06 02:11:23;;;;;;;8.07;6.28;;;19.30;95.40;;;;;;5045251;28;20044;-77
2023/06/06 02:13:50;;;;;;;8.77;6.80;;;19.20;95.40;;;;;;5033220;28;20030;-77
2023/06/06 02:16:17;;;;;;;7.97;6.43;;;19.00;96.10;;;;;;5047081;28;20391;-77
2023/06/06 02:18:44;;;;;;;7.18;6.55;;;18.90;96.60;;;;;;5033109;28;20045;-76
2023/06/06 02:21:12;;;;;;;7.45;6.80;;;18.80;97.00;;;;;;5031514;28;20494;-74
2023/06/06 02:23:39;;;;;;;7.03;6.43;;;18.80;97.20;;;;;;5032427;28;20044;-77
2023/06/06 02:26:05;;;;;;;7.03;6.43;;;18.80;97.20;;;;;;5032145;28;20052;-77
2023/06/06 02:28:31;;;;;;;7.75;7.03;;;18.90;97.40;;;;;;5033089;28;20371;-76
2023/06/06 02:30:57;;;;;;;7.47;6.68;;;18.90;97.50;;;;;;5032215;28;20489;-76
2023/06/06 02:33:23;;;;;;;7.15;6.45;;;18.90;97.50;;;;;;5031628;28;20029;-77
2023/06/06 02:35:50;;;;;;;7.40;6.68;;;18.80;97.80;;;;;;5032300;28;20399;-76
2023/06/06 02:38:16;;;;;;;6.97;6.32;;;18.80;97.80;;;;;;5033858;28;20386;-77
2023/06/06 02:40:43;;;;;;;8.63;6.90;;;18.70;97.90;;;;;;5033807;28;20394;-77
2023/06/06 02:43:09;;;;;;;7.47;6.45;;;18.80;98.10;;;;;;5034077;28;20033;-76
2023/06/06 02:45:35;;;;;;;7.75;6.43;;;18.70;98.40;;;;;;5033266;28;20048;-77
2023/06/06 02:48:01;;;;;;;7.80;6.55;;;18.60;98.60;;;;;;5044206;28;20045;-77
2023/06/06 02:50:28;;;;;;;7.80;7.00;;;18.70;98.80;;;;;;5050540;28;20378;-76
2023/06/06 02:52:55;;;;;;;7.20;6.50;;;18.60;99.50;;;;;;5033614;28;20061;-77
2023/06/06 02:55:21;;;;;;;7.70;6.60;;;18.60;99.30;;;;;;5033522;28;20026;-77
2023/06/06 02:57:49;;;;;;;8.00;6.78;;;18.40;99.70;;;;;;5033572;28;20036;-76
2023/06/06 03:00:15;;;;;;;7.75;6.50;;;18.40;99.90;;;;;;5032809;28;20028;-76
2023/06/06 03:02:41;;;;;;;7.30;6.60;;;18.30;99.90;;;;;;5033440;28;20029;-77
2023/06/06 03:05:08;;;;;;;7.70;6.90;;;18.30;99.90;;;;;;5033115;28;20033;-77
2023/06/06 03:07:34;;;;;;;8.02;6.68;;;18.20;99.90;;;;;;5033259;28;20045;-77
2023/06/06 03:10:00;;;;;;;9.52;6.30;;;18.20;99.90;;;;;;5033438;28;20025;-77
2023/06/06 03:12:26;;;;;;;9.25;6.30;;;18.10;99.90;;;;;;5032777;28;20033;-77
2023/06/06 03:14:52;;;;;;;7.45;6.53;;;18.20;99.90;;;;;;5033258;28;20037;-77
2023/06/06 03:17:18;;;;;;;7.30;6.63;;;18.30;99.90;;;;;;5032419;28;20041;-76
2023/06/06 03:19:48;;;;;;;7.43;6.18;;;18.30;99.90;;;;;;5032967;28;20045;-77
2023/06/06 03:22:17;;;;;;;7.75;6.72;;;18.10;99.90;;;;;;5032747;28;20478;-77
2023/06/06 03:24:49;;;;;;;11.82;7.25;;;18.10;99.90;;;;;;5032786;28;20037;-77
2023/06/06 03:27:16;;;;;;;8.52;7.03;;;18.10;99.90;;;;;;5032340;28;20390;-76
2023/06/06 03:29:42;;;;;;;7.32;6.63;;;18.10;99.90;;;;;;5033147;28;20040;-76
2023/06/06 03:32:08;;;;;;;8.10;6.93;;;18.10;99.90;;;;;;5032225;28;20402;-76
2023/06/06 03:34:34;;;;;;;10.82;7.63;;;18.30;99.90;;;;;;5032836;28;20033;-77
2023/06/06 03:37:00;;;;;;;9.02;7.30;;;18.20;99.90;;;;;;5032502;28;20048;-77
2023/06/06 03:39:26;;;;;;;13.55;7.53;;;18.20;99.90;;;;;;5032852;28;20026;-77
2023/06/06 03:41:52;;;;;;;8.77;7.20;;;18.10;99.90;;;;;;5032585;28;20029;-76
2023/06/06 03:44:18;;;;;;;7.78;6.93;;;18.10;99.90;;;;;;5031708;28;20032;-77
2023/06/06 03:46:45;;;;;;;9.85;7.43;;;18.00;99.90;;;;;;5032021;28;20057;-77
2023/06/06 03:49:11;;;;;;;9.88;7.22;;;18.00;99.90;;;;;;5052052;28;20021;-75
2023/06/06 03:51:40;;;;;;;10.38;6.60;;;18.00;99.90;;;;;;5053041;28;20079;-77
2023/06/06 03:54:06;;;;;;;9.23;7.05;;;17.90;99.90;;;;;;5053093;28;20037;-77
2023/06/06 03:56:32;;;;;;;9.73;6.55;;;17.90;99.90;;;;;;5044412;28;20037;-77
2023/06/06 03:58:58;;;;;;;9.32;6.63;;;17.80;99.90;;;;;;5032578;28;20486;-76
2023/06/06 04:01:24;;;;;;;10.52;6.47;;;17.80;99.90;;;;;;5031858;28;20044;-77
2023/06/06 04:03:50;;;;;;;10.52;6.70;;;17.70;99.90;;;;;;5032399;28;20034;-77
2023/06/06 04:06:16;;;;;;;7.60;5.82;;;17.70;99.90;;;;;;5032258;28;20025;-76
2023/06/06 04:08:42;;;;;;;9.45;6.75;;;17.70;99.90;;;;;;5032420;28;20037;-77
2023/06/06 04:11:09;;;;;;;9.60;6.25;;;17.70;99.90;;;;;;5032243;28;20034;-77
2023/06/06 04:13:35;;;;;;;8.13;6.30;;;17.80;99.90;;;;;;5032266;28;20052;-76
2023/06/06 04:16:01;;;;;;;11.63;6.40;;;17.90;99.90;;;;;;5031567;28;20513;-76
2023/06/06 04:18:27;;;;;;;9.77;6.45;;;18.00;99.90;;;;;;5032247;28;20041;-77
2023/06/06 04:20:53;;;;;;;12.45;6.82;;;18.00;99.90;;;;;;5031950;28;20026;-77
2023/06/06 04:23:20;;;;;;;9.05;6.50;;;17.90;99.90;;;;;;5031602;28;20030;-76
2023/06/06 04:25:46;;;;;;;9.82;6.50;;;17.80;99.90;;;;;;5032213;28;20044;-77
2023/06/06 04:28:17;;;;;;;9.50;7.25;;;17.80;99.90;;;;;;5032294;28;20030;-77
2023/06/06 04:30:45;;;;;;;;;;;17.80;99.90;;;;;;5031886;28;20030;-76
2023/06/06 04:33:10;;;;;;;11.48;6.68;;;17.70;99.90;;;;;;5031881;28;19928;-76
2023/06/06 04:35:41;;;;;;;8.48;6.28;;;17.70;99.90;;;;;;5032004;28;20044;-76
2023/06/06 04:38:07;;;;;;;7.72;6.93;;;17.60;99.90;;;;;;5031906;28;20045;-76
2023/06/06 04:40:34;;;;;;;12.48;6.82;;;17.50;99.90;;;;;;5031954;28;20036;-76
2023/06/06 04:43:01;;;;;;;10.90;7.13;;;17.50;99.90;;;;;;5032166;28;20048;-76
2023/06/06 04:45:27;;;;;;;12.50;7.47;;;17.60;99.90;;;;;;5029764;28;20033;-76
2023/06/06 04:47:55;;;;;;;10.15;7.10;;;17.60;99.90;;;;;;5041082;28;20045;-76
2023/06/06 04:50:23;;;;;;;11.27;7.05;;;17.40;99.90;;;;;;5050493;28;20042;-76
2023/06/06 04:52:49;;;;;;;10.13;7.22;;;17.30;99.90;;;;;;5031940;28;20044;-76
2023/06/06 04:55:15;;;;;;;13.85;7.75;;;17.30;99.90;;;;;;5031923;28;20092;-76
2023/06/06 04:57:44;;;;;;;9.75;7.07;;;17.20;99.90;;;;;;5032082;28;20386;-76
2023/06/06 05:00:12;;;;;;;12.55;7.72;;;17.20;99.90;;;;;;5031670;28;20053;-76
2023/06/06 05:02:39;;;;;;;11.90;7.82;;;17.20;99.90;;;;;;5011964;28;20034;-75
2023/06/06 05:05:09;;;;;;;10.50;7.50;;;17.30;99.90;;;;;;5012101;28;20046;-76
2023/06/06 05:07:35;;;;;;;8.82;7.32;;;17.30;99.90;;;;;;5012179;28;20045;-76
2023/06/06 05:10:02;;;;;;;11.50;7.38;;;17.30;99.90;;;;;;5012570;28;20034;-76
2023/06/06 05:12:28;;;;;;;13.13;8.02;;;17.40;99.90;;;;;;5029134;28;20081;-76
2023/06/06 05:14:54;;;;;;;9.77;7.13;;;17.60;99.90;;;;;;5030379;28;20044;-76
2023/06/06 05:17:22;;;;;;;10.55;7.93;;;17.70;99.90;;;;;;5030417;28;20042;-76
2023/06/06 05:19:49;;;;;;;11.80;9.75;;;17.70;99.90;;;;;;5031479;28;20044;-76
2023/06/06 05:22:15;;;;;;;15.52;8.65;;;17.90;99.90;;;;;;5031568;28;20038;-75
2023/06/06 05:24:42;;;;;;;10.90;7.70;;;17.80;99.90;;;;;;5029947;28;20037;-76
2023/06/06 05:27:08;;;;;;;12.25;8.27;;;17.80;99.90;;;;;;5031400;28;20033;-76
2023/06/06 05:29:34;;;;;;;12.98;8.65;;;17.90;99.90;;;;;;5031668;28;20037;-75
2023/06/06 05:32:00;;;;;;;13.40;8.95;;;18.10;99.90;;;;;;5030537;28;20053;-75
2023/06/06 05:34:26;;;;;;;12.13;8.25;;;18.30;99.90;;;;;;5033704;28;20036;-74
2023/06/06 05:36:53;;;;;;;8.80;7.88;;;18.30;99.90;;;;;;5035017;28;20378;-76
2023/06/06 05:39:19;;;;;;;10.57;8.63;;;18.50;99.90;;;;;;5035181;28;20025;-76
2023/06/06 05:41:47;;;;;;;14.45;8.60;;;18.50;99.90;;;;;;5034876;28;20030;-75
2023/06/06 05:44:13;;;;;;;13.32;7.85;;;18.70;99.90;;;;;;5033490;28;20045;-72
2023/06/06 05:46:40;;;;;;;13.32;7.97;;;18.80;99.90;;;;;;5033978;28;20060;-76
2023/06/06 05:49:06;;;;;;;11.88;7.93;;;18.70;99.90;;;;;;5052653;28;20393;-76
2023/06/06 05:51:32;;;;;;;10.82;8.60;;;18.60;99.90;;;;;;5043074;28;20034;-76
2023/06/06 05:53:58;;;;;;;9.77;8.35;;;18.60;99.90;;;;;;5034872;28;20029;-76
2023/06/06 05:56:24;;;;;;;11.77;8.60;;;18.60;99.90;;;;;;5033213;28;20437;-76
2023/06/06 05:58:52;;;;;;;12.40;8.68;;;18.50;99.90;;;;;;5034450;28;20025;-76
2023/06/06 06:01:19;;;;;;;13.43;8.48;;;18.50;99.90;;;;;;5033858;28;20034;-76
2023/06/06 06:03:48;;;;;;;10.77;7.50;;;18.50;99.90;;;;;;5034817;28;20028;-75
2023/06/06 06:06:14;;;;;;;11.82;8.68;;;18.50;99.90;;;;;;5034081;28;20042;-76
2023/06/06 06:08:41;;;;;;;13.75;8.90;;;18.50;99.90;;;;;;5034516;28;20036;-75
2023/06/06 06:11:08;;;;;;;11.82;8.75;;;18.40;99.90;;;;;;5034320;28;20056;-76
2023/06/06 06:13:34;;;;;;;8.65;7.72;;;18.60;99.90;;;;;;5033721;28;20482;-76
2023/06/06 06:16:00;;;;;;;14.02;7.97;;;18.80;99.90;;;;;;5033774;28;20037;-75
2023/06/06 06:18:26;;;;;;;10.68;7.95;;;18.90;99.90;;;;;;5034442;28;20410;-75
2023/06/06 06:20:52;;;;;;;12.75;8.02;;;19.10;99.90;;;;;;5034038;28;20051;-76
2023/06/06 06:23:18;;;;;;;12.93;8.68;;;19.10;99.90;;;;;;5034405;28;20026;-75
2023/06/06 06:25:45;;;;;;;14.23;8.93;;;19.10;99.90;;;;;;5033826;28;20033;-76
2023/06/06 06:28:20;;;;;;;12.27;7.82;;;19.30;99.90;;;;;;5033858;28;20036;-76
2023/06/06 06:30:46;;;;;;;10.07;8.02;;;19.60;99.90;;;;;;5033303;28;20034;-75
2023/06/06 06:33:12;;;;;;;14.60;7.55;;;19.70;99.90;;;;;;5033547;28;20041;-75
2023/06/06 06:35:40;;;;;;;10.80;7.72;;;19.70;99.90;;;;;;5033830;28;20040;-76
2023/06/06 06:38:06;;;;;;;14.48;7.95;;;19.70;99.90;;;;;;5049082;28;20040;-76
2023/06/06 06:40:32;;;;;;;10.77;8.00;;;19.80;99.90;;;;;;5033856;28;20490;-75
2023/06/06 06:42:58;;;;;;;14.98;7.93;;;19.80;99.90;;;;;;5033556;28;20034;-76
2023/06/06 06:45:26;;;;;;;10.93;6.88;;;19.80;99.90;;;;;;5032362;28;20040;-75
2023/06/06 06:47:52;;;;;;;15.23;8.13;;;19.90;99.90;;;;;;5042970;28;20044;-75
2023/06/06 06:50:19;;;;;;;9.05;7.35;;;20.00;99.90;;;;;;5052204;28;20076;-77
2023/06/06 06:52:45;;;;;;;13.55;7.50;;;20.00;99.90;;;;;;5033682;28;20054;-75
2023/06/06 06:55:11;;;;;;;10.25;7.40;;;20.10;99.90;;;;;;5033433;28;20382;-73
2023/06/06 06:57:39;;;;;;;10.38;7.60;;;20.00;99.90;;;;;;5033209;28;20029;-76
2023/06/06 07:00:12;;;;;;;12.55;7.43;;;20.10;99.90;;;;;;5015543;28;20030;-76
2023/06/06 07:02:44;;;;;;;13.88;7.40;;;20.30;99.90;;;;;;5033724;28;20053;-75
2023/06/06 07:05:11;;;;;;;11.73;7.47;;;20.50;99.90;;;;;;5032435;28;20029;-75
2023/06/06 07:07:47;;;;;;;11.27;7.28;;;20.50;99.90;;;;;;5031649;28;20052;-75
2023/06/06 07:10:14;;;;;;;10.85;7.40;;;20.80;99.90;;;;;;5032940;28;20044;-76
2023/06/06 07:12:41;;;;;;;10.02;7.63;;;20.90;99.90;;;;;;5032618;28;20057;-76
2023/06/06 07:15:10;;;;;;;15.30;7.10;;;21.00;99.90;;;;;;5033017;28;20343;-76
2023/06/06 07:17:37;;;;;;;11.45;7.30;;;21.00;99.90;;;;;;5017855;28;20052;-76
2023/06/06 07:20:05;;;;;;;9.75;7.72;;;21.00;99.90;;;;;;5013500;28;20029;-75
2023/06/06 07:22:35;;;;;;;11.10;7.93;;;21.30;99.90;;;;;;5032461;28;20048;-76
2023/06/06 07:25:03;;;;;;;12.70;7.32;;;21.40;99.90;;;;;;5033254;28;20040;-76
2023/06/06 07:27:35;;;;;;;11.27;7.75;;;21.40;99.90;;;;;;5031184;28;20045;-76
2023/06/06 07:30:02;;;;;;;11.65;7.57;;;21.40;99.90;;;;;;5031434;28;20044;-76
2023/06/06 07:32:29;;;;;;;11.57;7.18;;;21.60;99.90;;;;;;5032040;28;20395;-76
2023/06/06 07:34:55;;;;;;;11.23;7.65;;;21.70;99.90;;;;;;5033163;28;20041;-76
2023/06/06 07:37:21;;;;;;;8.82;7.55;;;21.80;99.90;;;;;;5032622;28;20029;-76
2023/06/06 07:39:47;;;;;;;10.88;7.38;;;21.90;99.90;;;;;;5031716;28;20565;-76
2023/06/06 07:42:13;;;;;;;10.00;7.18;;;21.90;99.90;;;;;;5032129;28;20037;-75
2023/06/06 07:44:39;;;;;;;9.85;6.53;;;21.70;99.90;;;;;;5032803;28;20458;-76
2023/06/06 07:47:05;;;;;;;8.77;6.28;;;21.90;99.90;;;;;;5034950;28;20060;-75
2023/06/06 07:49:31;;;;;;;8.48;7.03;;;22.00;99.60;;;;;;5052684;28;20029;-76
2023/06/06 07:51:58;;;;;;;14.85;7.53;;;21.80;99.90;;;;;;5038281;28;20045;-75
2023/06/06 07:54:24;;;;;;;10.70;7.65;;;21.70;99.90;;;;;;5032679;28;20037;-76
2023/06/06 07:56:50;;;;;;;9.88;7.65;;;21.70;99.90;;;;;;5031549;28;20029;-76
2023/06/06 07:59:17;;;;;;;14.70;7.50;;;22.00;99.90;;;;;;5032377;28;20363;-75
2023/06/06 08:01:44;;;;;;;11.45;6.95;;;22.30;99.40;;;;;;5031993;28;20525;-76
2023/06/06 08:04:10;;;;;;;8.95;6.95;;;22.40;99.10;;;;;;5031075;28;20060;-76
2023/06/06 08:06:37;;;;;;;10.82;7.70;;;22.40;99.10;;;;;;5031965;28;20394;-76
2023/06/06 08:09:06;;;;;;;10.65;7.32;;;22.40;99.00;;;;;;5032716;28;20032;-75
2023/06/06 08:11:35;;;;;;;8.63;7.07;;;22.60;98.70;;;;;;5030035;28;20041;-76
2023/06/06 08:14:01;;;;;;;11.70;7.68;;;22.80;98.50;;;;;;5031243;28;20049;-76
2023/06/06 08:16:28;;;;;;;8.82;7.07;;;23.00;98.00;;;;;;5031193;28;20029;-75
2023/06/06 08:18:54;;;;;;;11.77;7.28;;;23.00;97.70;;;;;;5032456;28;20034;-75
2023/06/06 08:21:21;;;;;;;12.98;7.22;;;23.00;98.10;;;;;;5031807;28;20037;-75
2023/06/06 08:23:47;;;;;;;9.60;7.03;;;23.00;98.10;;;;;;5031760;28;20130;-75
2023/06/06 08:26:13;;;;;;;9.52;7.25;;;23.20;97.80;;;;;;5031862;28;20514;-74
2023/06/06 08:28:39;;;;;;;10.25;7.07;;;23.30;97.60;;;;;;5032157;28;20046;-75
2023/06/06 08:31:05;;;;;;;12.52;7.53;;;23.40;97.10;;;;;;5031567;28;20403;-75
2023/06/06 08:33:32;;;;;;;10.40;6.47;;;23.50;96.80;;;;;;5047470;28;20049;-75
2023/06/06 08:35:58;;;;;;;9.13;6.22;;;23.50;96.50;;;;;;5031652;28;20026;-75
2023/06/06 08:38:24;;;;;;;9.13;6.82;;;23.50;96.80;;;;;;5031989;28;20049;-75
2023/06/06 08:40:51;;;;;;;16.85;7.47;;;23.50;96.40;;;;;;5031682;28;20040;-76
2023/06/06 08:43:17;;;;;;;10.40;6.88;;;23.30;96.70;;;;;;5031973;28;20489;-75
2023/06/06 08:45:47;;;;;;;10.98;6.85;;;23.50;96.80;;;;;;5030275;28;20042;-75
2023/06/06 08:48:13;;;;;;;12.80;7.80;;;23.60;96.20;;;;;;5044137;28;20062;-75
2023/06/06 08:50:39;;;;;;;14.63;7.65;;;23.60;96.00;;;;;;5046267;28;20060;-75
2023/06/06 08:53:06;;;;;;;12.25;6.80;;;23.60;96.00;;;;;;5030615;28;20041;-75
2023/06/06 08:55:33;;;;;;;15.20;7.22;;;23.70;96.30;;;;;;5029987;28;20054;-75
2023/06/06 08:58:00;;;;;;;17.15;8.10;;;23.80;96.00;;;;;;5030800;28;20364;-74
2023/06/06 09:00:26;;;;;;;10.73;7.28;;;23.90;95.80;;;;;;5030289;28;20026;-75
2023/06/06 09:02:54;;;;;;;12.07;7.72;;;24.00;95.70;;;;;;5029968;28;20038;-75
2023/06/06 09:05:20;;;;;;;8.65;7.18;;;24.20;95.50;;;;;;5030034;28;20052;-75
2023/06/06 09:07:48;;;;;;;11.68;7.53;;;24.40;94.80;;;;;;5030082;28;20041;-74
2023/06/06 09:10:14;;;;;;;8.82;7.22;;;24.30;94.90;;;;;;5033566;28;20045;-75
2023/06/06 09:12:47;;;;;;;14.38;7.38;;;24.40;94.90;;;;;;5034060;28;20045;-75
2023/06/06 09:15:13;;;;;;;14.43;7.72;;;24.40;95.00;;;;;;5034869;28;20041;-75
2023/06/06 09:17:40;;;;;;;10.13;8.02;;;24.50;94.70;;;;;;5035694;28;20026;-75
2023/06/06 09:20:07;;;;;;;12.32;7.97;;;24.60;94.40;;;;;;5035449;28;20021;-76
2023/06/06 09:22:40;;;;;;;11.63;7.97;;;24.60;94.20;;;;;;5034844;28;20038;-75
2023/06/06 09:25:19;;;;;;;10.85;7.93;;;24.60;94.10;;;;;;5035468;28;20021;-76
2023/06/06 09:27:45;;;;;;;17.38;7.45;;;24.60;93.60;;;;;;5049826;28;20049;-75
2023/06/06 09:30:21;;;;;;;8.38;7.15;;;24.50;93.90;;;;;;5049570;28;20503;-75
2023/06/06 09:32:56;;;;;;;10.45;7.35;;;24.70;93.60;;;;;;5035351;28;20056;-75
2023/06/06 09:35:23;;;;;;;9.07;7.65;;;24.90;93.70;;;;;;5034556;28;20038;-75
2023/06/06 09:37:49;;;;;;;13.73;8.32;;;24.90;92.90;;;;;;5034888;28;20034;-75
2023/06/06 09:40:16;;;;;;;12.75;7.68;;;24.90;93.00;;;;;;5035140;28;20034;-76
2023/06/06 09:42:44;;;;;;;12.60;7.32;;;25.00;93.10;;;;;;5035148;28;20034;-76
2023/06/06 09:45:20;;;;;;;12.70;7.38;;;25.10;92.90;;;;;;5033163;28;20018;-76
2023/06/06 09:47:47;;;;;;;14.07;7.95;;;25.30;92.90;;;;;;5043302;28;20064;-74
2023/06/06 09:50:14;;;;;;;12.98;7.32;;;25.50;92.20;;;;;;5054581;28;20370;-76
2023/06/06 09:52:41;;;;;;;10.70;7.68;;;25.40;92.20;;;;;;5034645;28;20048;-75
2023/06/06 09:55:11;;;;;;;15.15;8.32;;;25.40;92.10;;;;;;5034863;28;20052;-76
2023/06/06 09:57:39;;;;;;;14.68;7.57;;;25.50;92.20;;;;;;5034810;28;20169;-77
2023/06/06 10:00:09;;;;;;;17.40;7.65;;;25.70;92.00;;;;;;5032962;28;20394;-75
2023/06/06 10:02:35;;;;;;;12.10;7.25;;;25.60;91.90;;;;;;5034562;28;20064;-76
2023/06/06 10:05:02;;;;;;;10.32;7.80;;;25.70;92.00;;;;;;5033398;28;20029;-75
2023/06/06 10:07:28;;;;;;;9.52;7.60;;;25.70;92.00;;;;;;5033920;28;20052;-75
2023/06/06 10:09:55;;;;;;;9.32;7.95;;;25.70;93.10;;;;;;5034725;28;20037;-76
2023/06/06 10:12:21;;;;;;;10.63;7.40;;;25.70;92.30;;;;;;5049541;28;20029;-75
2023/06/06 10:14:48;;;;;;;10.75;7.50;;;25.80;92.40;;;;;;5049870;28;20489;-75
2023/06/06 10:17:14;;;;;;;10.73;7.32;;;25.90;92.10;;;;;;5065490;28;20474;-75
2023/06/06 10:19:40;;;;;;;13.07;7.78;;;26.10;91.60;;;;;;5032440;28;20042;-74
2023/06/06 10:22:06;;;;;;;15.48;7.45;;;26.10;91.00;;;;;;5031912;28;20033;-75
2023/06/06 10:24:33;;;;;;;8.32;7.40;;;26.10;91.10;;;;;;5032291;28;20037;-75
2023/06/06 10:27:18;;;;;;;10.57;7.35;;;26.10;91.40;;;;;;5033943;28;20474;-75
2023/06/06 10:30:14;;;;;;;8.48;7.68;;;26.20;91.00;;;;;;5033241;28;20033;-74
2023/06/06 10:32:54;;;;;;;10.02;7.13;;;26.20;90.00;;;;;;4971962;28;20520;-76
2023/06/06 10:35:20;;;;;;;;;;;26.30;90.40;;;;;;4957019;28;20030;-74
2023/06/06 10:38:08;;;;;;;10.63;8.50;;;26.40;89.30;;;;;;4973031;28;19937;-74
2023/06/06 10:40:41;;;;;;;8.85;7.90;;;26.40;88.90;;;;;;4972404;28;20039;-75
2023/06/06 10:43:09;;;;;;;9.32;8.30;;;26.50;88.20;;;;;;4956774;28;20115;-76
2023/06/06 10:45:42;;;;;;;12.77;8.18;;;26.60;85.80;;;;;;4971865;28;20043;-75
2023/06/06 10:48:08;;;;;;;9.38;7.85;;;26.70;86.90;;;;;;4983575;28;20073;-74
2023/06/06 10:50:35;;;;;;;11.05;8.93;;;26.50;86.30;;;;;;4987718;28;20046;-74
2023/06/06 10:53:06;;;;;;;11.27;8.18;;;26.50;85.50;;;;;;4972805;28;20043;-75
2023/06/06 10:55:33;;;;;;;9.02;8.18;;;26.50;85.00;;;;;;4972256;28;20058;-75
2023/06/06 10:58:06;;;;;;;11.60;8.35;;;26.70;84.00;;;;;;4972851;28;20046;-75
2023/06/06 11:00:39;;;;;;;10.20;8.80;;;26.80;84.80;;;;;;4971656;28;20043;-74
2023/06/06 11:03:06;;;;;;;10.98;8.45;;;27.00;82.10;;;;;;4972648;28;20159;-74
2023/06/06 11:05:32;;;;;;;10.13;8.60;;;27.00;82.10;;;;;;4955977;28;20082;-75
2023/06/06 11:08:00;;;;;;;9.27;8.20;;;26.70;82.80;;;;;;4973544;28;20039;-75
2023/06/06 11:10:27;;;;;;;9.63;8.63;;;26.90;82.40;;;;;;5033026;28;20041;-75
2023/06/06 11:12:53;;;;;;;10.93;8.65;;;27.00;81.70;;;;;;5033296;28;20052;-74
2023/06/06 11:15:32;;;;;;;9.52;8.70;;;27.00;81.00;;;;;;5032717;28;20034;-74
2023/06/06 11:18:03;;;;;;;10.32;9.32;;;27.00;81.00;;;;;;5032958;28;20075;-75
2023/06/06 11:20:37;;;;;;;9.93;8.90;;;27.10;82.00;;;;;;5033055;28;20057;-75
2023/06/06 11:23:03;;;;;;;16.23;9.70;;;27.00;81.90;;;;;;5031504;28;20490;-74
2023/06/06 11:25:33;;;;;;;11.75;9.38;;;27.10;81.80;;;;;;5032383;28;20053;-75
2023/06/06 11:27:59;;;;;;;9.52;8.75;;;27.20;81.00;;;;;;5033085;28;20021;-75
2023/06/06 11:30:33;;;;;;;9.80;8.75;;;27.40;81.00;;;;;;5032524;28;20021;-75
2023/06/06 11:33:00;;;;;;;10.45;8.52;;;27.50;80.40;;;;;;5032532;28;20474;-74
2023/06/06 11:35:32;;;;;;;9.25;8.45;;;27.60;80.30;;;;;;5030943;28;20052;-74
2023/06/06 11:37:58;;;;;;;10.65;8.77;;;27.50;79.70;;;;;;5032565;28;20053;-74
2023/06/06 11:40:25;;;;;;;9.68;8.75;;;27.50;81.10;;;;;;5031536;28;20026;-75
2023/06/06 11:42:51;;;;;;;12.73;9.70;;;27.50;80.20;;;;;;5032361;28;20049;-74
2023/06/06 11:45:18;;;;;;;9.05;8.25;;;27.50;80.10;;;;;;5031932;28;20043;-75
2023/06/06 11:47:44;;;;;;;10.23;8.68;;;27.50;78.50;;;;;;5040543;28;20048;-74
2023/06/06 11:50:11;;;;;;;10.27;9.25;;;27.30;80.70;;;;;;5052139;28;20029;-74
2023/06/06 11:52:50;;;;;;;9.20;8.40;;;27.50;79.90;;;;;;5032558;28;20435;-75
2023/06/06 11:55:16;;;;;;;9.20;8.40;;;27.60;79.30;;;;;;5032154;28;20053;-74
2023/06/06 11:57:42;;;;;;;8.93;8.13;;;27.70;77.50;;;;;;5032762;28;20030;-74
2023/06/06 12:00:17;;;;;;;10.50;8.38;;;27.60;75.50;;;;;;5030776;28;20036;-75
2023/06/06 12:02:48;;;;;;;10.23;7.97;;;27.50;75.40;;;;;;5032045;28;20049;-75
2023/06/06 12:05:21;;;;;;;8.77;7.93;;;27.60;76.00;;;;;;5031884;28;20470;-75
2023/06/06 12:07:51;;;;;;;7.97;7.28;;;27.60;74.70;;;;;;5032512;28;20043;-75
2023/06/06 12:10:28;;;;;;;7.97;7.18;;;27.40;72.00;;;;;;5032217;28;20429;-75
2023/06/06 12:12:54;;;;;;;9.38;8.00;;;27.50;72.60;;;;;;5032078;28;20431;-76
2023/06/06 12:15:21;;;;;;;9.77;8.43;;;27.70;74.70;;;;;;5031748;28;20052;-74
2023/06/06 12:17:47;;;;;;;11.57;8.00;;;27.90;73.70;;;;;;5032214;28;20034;-74
2023/06/06 12:20:22;;;;;;;8.95;8.05;;;27.70;74.40;;;;;;5031902;28;20022;-75
2023/06/06 12:22:49;;;;;;;8.35;7.68;;;27.80;73.60;;;;;;5032519;28;20034;-75
2023/06/06 12:25:26;;;;;;;7.90;7.10;;;27.90;73.90;;;;;;5031770;28;20038;-75
2023/06/06 12:27:55;;;;;;;7.47;6.88;;;28.00;72.70;;;;;;5032258;28;20486;-76
2023/06/06 12:30:31;;;;;;;9.27;8.30;;;28.00;72.30;;;;;;5030752;28;20037;-75
2023/06/06 12:32:58;;;;;;;8.80;7.93;;;28.20;72.20;;;;;;5032175;28;20045;-75
2023/06/06 12:35:24;;;;;;;8.32;7.53;;;28.10;71.40;;;;;;5031711;28;20487;-74
2023/06/06 12:37:50;;;;;;;8.88;7.97;;;28.20;71.80;;;;;;5032111;28;20033;-75
2023/06/06 12:40:20;;;;;;;9.75;8.63;;;28.30;73.80;;;;;;5031886;28;20037;-75
2023/06/06 12:42:53;;;;;;;10.20;7.80;;;28.40;74.40;;;;;;5032070;28;20029;-75
2023/06/06 12:45:20;;;;;;;9.20;8.30;;;28.30;72.40;;;;;;5034585;28;20378;-75